createdAt,value
2018-01-20T00:00:41.204Z,97.90
2018-01-20T00:03:08.766Z,97.90
2018-01-20T00:05:36.337Z,97.90
2018-01-20T00:08:04.717Z,97.90
2018-01-20T00:10:44.071Z,98.00
2018-01-20T00:13:11.640Z,98.00
2018-01-20T00:15:39.208Z,98.00
2018-01-20T00:18:06.759Z,97.90
2018-01-20T00:20:38.233Z,98.00
2018-01-20T00:23:06.545Z,98.00
2018-01-20T00:25:34.873Z,98.00
2018-01-20T00:28:02.416Z,98.00
2018-01-20T00:30:29.984Z,98.00
2018-01-20T00:32:57.537Z,97.90
2018-01-20T00:35:25.101Z,97.90
2018-01-20T00:37:52.644Z,97.90
2018-01-20T00:40:20.213Z,98.20
2018-01-20T00:42:47.756Z,97.90
2018-01-20T00:45:15.305Z,97.90
2018-01-20T00:47:43.640Z,97.90
2018-01-20T00:50:11.191Z,97.90
2018-01-20T00:52:39.525Z,98.00
2018-01-20T00:55:07.077Z,98.00
2018-01-20T00:57:35.408Z,98.10
2018-01-20T01:00:02.947Z,98.10
2018-01-20T01:02:30.515Z,98.10
2018-01-20T01:04:58.077Z,98.10
2018-01-20T01:07:25.638Z,98.10
2018-01-20T01:09:53.189Z,98.10
2018-01-20T01:12:21.533Z,98.10
2018-01-20T01:14:49.073Z,98.10
2018-01-20T01:17:16.632Z,98.00
2018-01-20T01:19:44.184Z,97.90
2018-01-20T01:22:11.734Z,97.90
2018-01-20T01:24:40.063Z,97.90
2018-01-20T01:27:07.607Z,97.80
2018-01-20T01:29:36.837Z,98.20
2018-01-20T01:32:07.216Z,97.90
2018-01-20T01:34:34.785Z,97.90
2018-01-20T01:37:03.120Z,97.90
2018-01-20T01:39:30.683Z,97.90
2018-01-20T01:41:58.261Z,97.90
2018-01-20T01:44:26.583Z,98.00
2018-01-20T01:46:54.131Z,98.00
2018-01-20T01:49:22.458Z,97.90
2018-01-20T01:51:49.999Z,97.90
2018-01-20T01:54:17.557Z,97.90
2018-01-20T01:56:45.096Z,97.90
2018-01-20T01:59:13.451Z,98.00
2018-01-20T02:01:41.005Z,98.00
2018-01-20T02:04:08.576Z,98.00
2018-01-20T02:06:36.121Z,98.00
2018-01-20T02:09:03.705Z,98.00
2018-01-20T02:11:32.041Z,98.10
2018-01-20T02:13:59.593Z,98.10
2018-01-20T02:16:27.956Z,98.10
2018-01-20T02:18:55.501Z,98.10
2018-01-20T02:21:23.867Z,98.10
2018-01-20T02:23:51.400Z,98.10
2018-01-20T02:26:19.734Z,98.10
2018-01-20T02:28:47.279Z,98.40
2018-01-20T02:31:15.611Z,98.10
2018-01-20T02:33:43.161Z,98.10
2018-01-20T02:36:11.502Z,98.20
2018-01-20T02:38:39.044Z,98.10
2018-01-20T02:41:07.378Z,98.10
2018-01-20T02:43:34.916Z,98.10
2018-01-20T02:46:02.470Z,98.10
2018-01-20T02:48:30.025Z,98.10
2018-01-20T02:50:57.594Z,98.10
2018-01-20T02:53:25.903Z,98.10
2018-01-20T02:55:53.465Z,98.10
2018-01-20T02:58:21.775Z,98.10
2018-01-20T03:00:50.104Z,98.00
2018-01-20T03:03:17.653Z,98.00
2018-01-20T03:05:45.976Z,98.10
2018-01-20T03:08:13.516Z,98.00
2018-01-20T03:10:41.833Z,98.00
2018-01-20T03:13:09.396Z,98.00
2018-01-20T03:15:36.945Z,98.00
2018-01-20T03:18:04.517Z,98.30
2018-01-20T03:20:32.055Z,98.00
2018-01-20T03:22:59.632Z,98.00
2018-01-20T03:25:27.227Z,98.00
2018-01-20T03:27:54.797Z,98.00
2018-01-20T03:30:22.345Z,98.10
2018-01-20T03:32:49.908Z,98.10
2018-01-20T03:35:18.220Z,98.10
2018-01-20T03:37:45.789Z,98.10
2018-01-20T03:40:14.103Z,98.10
2018-01-20T03:42:41.697Z,98.10
2018-01-20T03:45:09.236Z,98.10
2018-01-20T03:47:36.795Z,98.10
2018-01-20T03:50:04.346Z,98.10
2018-01-20T03:52:31.912Z,98.10
2018-01-20T03:55:00.232Z,98.10
2018-01-20T03:57:28.095Z,98.10
2018-01-20T03:59:55.636Z,98.00
2018-01-20T04:02:23.181Z,98.10
2018-01-20T04:04:51.504Z,98.10
2018-01-20T04:07:19.052Z,98.10
2018-01-20T04:09:47.386Z,97.80
2018-01-20T04:12:14.924Z,97.70
2018-01-20T04:14:42.482Z,97.60
2018-01-20T04:17:10.024Z,97.70
2018-01-20T04:19:37.586Z,97.70
2018-01-20T04:22:05.901Z,98.00
2018-01-20T04:24:33.471Z,98.00
2018-01-20T04:27:01.016Z,98.00
2018-01-20T04:29:28.583Z,98.10
2018-01-20T04:31:56.137Z,98.30
2018-01-20T04:34:24.473Z,98.40
2018-01-20T04:36:52.026Z,98.40
2018-01-20T04:39:19.596Z,98.50
2018-01-20T04:41:47.904Z,98.60
2018-01-20T04:44:16.228Z,98.70
2018-01-20T04:46:43.776Z,98.60
2018-01-20T04:49:11.383Z,98.70
2018-01-20T04:51:39.695Z,98.80
2018-01-20T04:54:07.241Z,98.80
2018-01-20T04:56:34.803Z,98.80
2018-01-20T04:59:02.348Z,98.70
2018-01-20T05:01:29.911Z,98.90
2018-01-20T05:03:58.240Z,98.80
2018-01-20T05:06:25.804Z,98.80
2018-01-20T05:08:54.113Z,98.70
2018-01-20T05:11:21.676Z,98.70
2018-01-20T05:13:49.993Z,98.70
2018-01-20T05:16:18.316Z,98.70
2018-01-20T05:18:45.853Z,98.70
2018-01-20T05:21:13.449Z,98.60
2018-01-20T05:23:41.764Z,98.60
2018-01-20T05:26:10.096Z,98.60
2018-01-20T05:28:37.676Z,98.60
2018-01-20T05:31:05.248Z,98.60
2018-01-20T05:33:32.796Z,98.60
2018-01-20T05:36:00.360Z,98.60
2018-01-20T05:38:27.910Z,98.60
2018-01-20T05:40:55.472Z,98.60
2018-01-20T05:43:23.012Z,98.60
2018-01-20T05:45:50.561Z,98.50
2018-01-20T05:48:18.132Z,98.50
2018-01-20T05:50:45.682Z,98.50
2018-01-20T05:53:13.256Z,98.60
2018-01-20T05:55:40.800Z,98.70
2018-01-20T05:58:08.375Z,99.00
2018-01-20T06:00:35.916Z,98.70
2018-01-20T06:03:03.480Z,98.70
2018-01-20T06:05:31.031Z,98.80
2018-01-20T06:07:58.631Z,98.80
2018-01-20T06:10:26.177Z,98.80
2018-01-20T06:12:53.742Z,98.80
2018-01-20T06:15:21.292Z,98.90
2018-01-20T06:17:48.850Z,98.90
2018-01-20T06:20:16.392Z,98.90
2018-01-20T06:22:43.968Z,98.90
2018-01-20T06:25:11.520Z,98.90
2018-01-20T06:27:39.085Z,98.90
2018-01-20T06:30:06.662Z,98.80
2018-01-20T06:32:34.226Z,98.80
2018-01-20T06:35:02.536Z,98.70
2018-01-20T06:37:30.843Z,98.70
2018-01-20T06:39:58.421Z,98.70
2018-01-20T06:42:25.964Z,98.70
2018-01-20T06:44:53.526Z,98.70
2018-01-20T06:47:21.075Z,98.80
2018-01-20T06:49:48.641Z,98.80
2018-01-20T06:52:16.954Z,98.90
2018-01-20T06:54:45.286Z,98.90
2018-01-20T06:57:12.833Z,98.80
2018-01-20T06:59:41.166Z,98.90
2018-01-20T07:02:08.718Z,98.90
2018-01-20T07:04:37.056Z,98.90
2018-01-20T07:07:04.620Z,98.90
2018-01-20T07:09:32.188Z,98.80
2018-01-20T07:12:00.499Z,98.90
2018-01-20T07:14:28.052Z,98.90
2018-01-20T07:16:55.615Z,98.80
2018-01-20T07:19:23.158Z,98.80
2018-01-20T07:21:50.737Z,98.80
2018-01-20T07:24:19.044Z,98.80
2018-01-20T07:26:46.631Z,98.80
2018-01-20T07:29:14.172Z,98.80
2018-01-20T07:31:41.749Z,98.80
2018-01-20T07:34:09.296Z,98.70
2018-01-20T07:36:36.839Z,98.70
2018-01-20T07:39:04.408Z,98.70
2018-01-20T07:41:31.960Z,98.70
2018-01-20T07:43:59.534Z,98.70
2018-01-20T07:46:27.084Z,98.70
2018-01-20T07:48:55.416Z,98.60
2018-01-20T07:51:22.956Z,98.60
2018-01-20T07:53:50.530Z,98.60
2018-01-20T07:56:18.078Z,98.60
2018-01-20T07:58:45.653Z,98.50
2018-01-20T08:01:13.192Z,98.50
2018-01-20T08:03:40.762Z,98.50
2018-01-20T08:06:08.299Z,98.50
2018-01-20T08:08:35.863Z,98.50
2018-01-20T08:11:04.204Z,98.50
2018-01-20T08:13:31.760Z,98.50
2018-01-20T08:15:59.338Z,98.50
2018-01-20T08:18:26.923Z,98.40
2018-01-20T08:20:54.493Z,98.40
2018-01-20T08:23:22.817Z,98.40
2018-01-20T08:25:50.385Z,98.40
2018-01-20T08:28:18.688Z,98.30
2018-01-20T08:30:47.020Z,98.30
2018-01-20T08:33:14.563Z,98.30
2018-01-20T08:35:42.913Z,98.20
2018-01-20T08:38:10.460Z,98.20
2018-01-20T08:40:38.792Z,98.10
2018-01-20T08:43:06.343Z,98.10
2018-01-20T08:45:34.677Z,98.00
2018-01-20T08:48:02.219Z,98.00
2018-01-20T08:50:30.583Z,98.10
2018-01-20T08:52:58.130Z,98.10
2018-01-20T08:55:25.684Z,98.10
2018-01-20T08:57:53.258Z,98.00
2018-01-20T09:00:20.803Z,98.00
2018-01-20T09:02:48.376Z,98.00
2018-01-20T09:05:15.945Z,97.90
2018-01-20T09:07:44.281Z,97.80
2018-01-20T09:10:11.832Z,97.80
2018-01-20T09:12:40.156Z,97.70
2018-01-20T09:15:07.702Z,97.70
2018-01-20T09:17:36.040Z,97.70
2018-01-20T09:20:03.580Z,97.70
2018-01-20T09:22:31.152Z,97.60
2018-01-20T09:24:59.493Z,97.60
2018-01-20T09:27:27.063Z,97.60
2018-01-20T09:29:55.380Z,97.50
2018-01-20T09:32:22.960Z,97.50
2018-01-20T09:34:50.520Z,97.40
2018-01-20T09:37:18.072Z,97.30
2018-01-20T09:39:45.640Z,97.40
2018-01-20T09:42:13.180Z,97.20
2018-01-20T09:44:41.585Z,97.20
2018-01-20T09:47:09.896Z,97.30
2018-01-20T09:49:38.223Z,97.30
2018-01-20T09:52:05.783Z,97.30
2018-01-20T09:54:33.359Z,97.20
2018-01-20T09:57:02.660Z,97.10
2018-01-20T09:59:30.230Z,97.10
2018-01-20T10:01:57.781Z,97.00
2018-01-20T10:04:26.125Z,97.10
2018-01-20T10:06:53.669Z,97.10
2018-01-20T10:09:21.256Z,97.00
2018-01-20T10:11:48.805Z,97.00
2018-01-20T10:14:17.124Z,97.10
2018-01-20T10:16:44.689Z,97.20
2018-01-20T10:19:13.012Z,97.10
2018-01-20T10:21:40.555Z,97.10
2018-01-20T10:24:08.101Z,97.10
2018-01-20T10:26:35.669Z,97.00
2018-01-20T10:29:03.207Z,97.00
2018-01-20T10:31:31.732Z,96.90
2018-01-20T10:34:00.072Z,96.70
2018-01-20T10:36:27.645Z,96.70
2018-01-20T10:38:55.200Z,96.60
2018-01-20T10:41:23.532Z,96.30
2018-01-20T10:43:51.076Z,96.30
2018-01-20T10:46:18.657Z,96.00
2018-01-20T10:48:46.224Z,96.10
2018-01-20T10:51:13.827Z,95.90
2018-01-20T10:53:41.372Z,95.80
2018-01-20T10:56:08.943Z,95.90
2018-01-20T10:58:36.495Z,95.90
2018-01-20T11:01:04.805Z,95.90
2018-01-20T11:03:33.142Z,96.00
2018-01-20T11:06:00.688Z,96.00
2018-01-20T11:08:29.034Z,95.40
2018-01-20T11:10:56.585Z,95.40
2018-01-20T11:13:24.229Z,95.20
2018-01-20T11:15:51.772Z,95.50
2018-01-20T11:18:19.356Z,95.00
2018-01-20T11:20:46.905Z,95.00
2018-01-20T11:23:15.236Z,95.30
2018-01-20T11:25:42.787Z,95.30
2018-01-20T11:28:11.121Z,94.80
2018-01-20T11:30:38.668Z,94.80
2018-01-20T11:33:06.228Z,94.70
2018-01-20T11:35:33.780Z,95.20
2018-01-20T11:38:01.380Z,94.50
2018-01-20T11:40:28.925Z,94.30
2018-01-20T11:42:56.520Z,94.30
2018-01-20T11:45:24.065Z,94.20
2018-01-20T11:47:51.624Z,94.20
2018-01-20T11:50:19.173Z,94.10
2018-01-20T11:52:46.720Z,94.00
2018-01-20T11:55:14.284Z,94.00
2018-01-20T11:57:41.821Z,94.10
2018-01-20T12:00:09.389Z,94.30
2018-01-20T12:02:37.705Z,94.30
2018-01-20T12:05:05.264Z,94.20
2018-01-20T12:07:32.820Z,94.20
2018-01-20T12:10:00.389Z,94.30
2018-01-20T12:12:27.957Z,94.40
2018-01-20T12:14:55.524Z,94.10
2018-01-20T12:17:23.073Z,94.10
2018-01-20T12:19:51.481Z,93.30
2018-01-20T12:22:19.025Z,93.30
2018-01-20T12:24:46.630Z,93.50
2018-01-20T12:27:14.191Z,93.80
2018-01-20T12:29:41.942Z,94.00
2018-01-20T12:32:09.526Z,94.00
2018-01-20T12:34:38.275Z,93.90
2018-01-20T12:37:05.840Z,93.90
2018-01-20T12:39:33.392Z,94.30
2018-01-20T12:42:02.561Z,94.40
2018-01-20T12:44:30.876Z,94.40
2018-01-20T12:46:58.464Z,94.40
2018-01-20T12:49:26.022Z,94.60
2018-01-20T12:51:53.580Z,94.70
2018-01-20T12:54:21.892Z,94.60
2018-01-20T12:56:49.455Z,94.60
2018-01-20T12:59:17.766Z,94.40
2018-01-20T13:01:46.100Z,94.40
2018-01-20T13:04:13.644Z,94.40
2018-01-20T13:06:41.986Z,94.90
2018-01-20T13:09:10.294Z,95.00
2018-01-20T13:11:37.856Z,95.00
2018-01-20T13:14:05.399Z,95.10
2018-01-20T13:16:32.948Z,95.30
2018-01-20T13:19:00.508Z,95.30
2018-01-20T13:21:28.056Z,95.40
2018-01-20T13:23:55.633Z,95.50
2018-01-20T13:26:23.173Z,95.10
2018-01-20T13:28:50.732Z,94.80
2018-01-20T13:31:19.045Z,95.20
2018-01-20T13:33:46.603Z,95.20
2018-01-20T13:36:14.912Z,95.20
2018-01-20T13:38:43.242Z,94.80
2018-01-20T13:41:10.788Z,94.80
2018-01-20T13:43:38.413Z,94.80
2018-01-20T13:46:05.960Z,94.90
2018-01-20T13:48:33.535Z,94.90
2018-01-20T13:51:01.078Z,95.00
2018-01-20T13:53:28.637Z,94.90
2018-01-20T13:55:56.181Z,94.90
2018-01-20T13:58:23.746Z,95.00
2018-01-20T14:00:51.285Z,95.00
2018-01-20T14:03:18.825Z,95.10
2018-01-20T14:05:46.391Z,95.20
2018-01-20T14:08:13.944Z,95.20
2018-01-20T14:10:41.505Z,95.30
2018-01-20T14:13:09.829Z,95.30
2018-01-20T14:15:37.396Z,95.30
2018-01-20T14:18:05.701Z,95.40
2018-01-20T14:20:34.030Z,95.40
2018-01-20T14:23:01.582Z,95.40
2018-01-20T14:25:29.942Z,95.50
2018-01-20T14:27:57.501Z,95.50
2018-01-20T14:30:25.065Z,95.60
2018-01-20T14:32:52.644Z,95.60
2018-01-20T14:35:20.972Z,95.80
2018-01-20T14:37:48.525Z,95.70
2018-01-20T14:40:16.860Z,95.90
2018-01-20T14:42:44.405Z,95.90
2018-01-20T14:45:11.973Z,96.00
2018-01-20T14:47:39.522Z,96.00
2018-01-20T14:50:07.060Z,96.10
2018-01-20T14:52:35.380Z,96.20
2018-01-20T14:55:02.953Z,96.10
2018-01-20T14:57:31.276Z,96.00
2018-01-20T14:59:58.829Z,96.00
2018-01-20T15:02:27.162Z,96.20
2018-01-20T15:04:54.714Z,96.20
2018-01-20T15:07:23.042Z,96.20
2018-01-20T15:09:50.588Z,96.20
2018-01-20T15:12:18.157Z,96.30
2018-01-20T15:14:45.707Z,96.40
2018-01-20T15:17:13.272Z,96.50
2018-01-20T15:19:40.815Z,96.40
2018-01-20T15:22:08.382Z,96.40
2018-01-20T15:24:35.926Z,96.50
2018-01-20T15:27:03.498Z,96.50
2018-01-20T15:29:31.829Z,96.70
2018-01-20T15:31:59.505Z,96.70
2018-01-20T15:34:27.170Z,96.70
2018-01-20T15:36:55.514Z,96.90
2018-01-20T15:39:23.060Z,96.80
2018-01-20T15:41:50.599Z,96.90
2018-01-20T15:44:18.168Z,96.90
2018-01-20T15:46:45.709Z,97.00
2018-01-20T15:49:14.032Z,97.00
2018-01-20T15:51:41.579Z,97.00
2018-01-20T15:54:09.146Z,97.00
2018-01-20T15:56:36.687Z,97.00
2018-01-20T15:59:04.249Z,97.00
2018-01-20T16:01:32.557Z,97.10
2018-01-20T16:04:00.121Z,97.10
2018-01-20T16:06:28.424Z,97.00
2018-01-20T16:08:55.997Z,97.00
2018-01-20T16:11:23.548Z,96.90
2018-01-20T16:13:51.112Z,97.10
2018-01-20T16:16:18.655Z,97.10
2018-01-20T16:18:46.991Z,97.20
2018-01-20T16:21:14.532Z,97.20
2018-01-20T16:23:42.095Z,97.30
2018-01-20T16:26:09.654Z,97.30
2018-01-20T16:28:37.219Z,97.30
2018-01-20T16:31:04.751Z,97.30
2018-01-20T16:33:32.324Z,97.40
2018-01-20T16:35:59.877Z,97.50
2018-01-20T16:38:27.428Z,97.50
2018-01-20T16:40:55.754Z,97.60
2018-01-20T16:43:23.306Z,97.60
2018-01-20T16:45:51.641Z,97.80
2018-01-20T16:48:19.194Z,97.50
2018-01-20T16:50:46.753Z,97.60
2018-01-20T16:53:14.292Z,97.70
2018-01-20T16:55:41.848Z,97.70
2018-01-20T16:58:10.176Z,97.80
2018-01-20T17:00:37.744Z,97.90
2018-01-20T17:03:05.280Z,97.90
2018-01-20T17:05:32.866Z,98.00
2018-01-20T17:08:00.410Z,97.90
2018-01-20T17:10:27.981Z,97.90
2018-01-20T17:12:55.601Z,97.90
2018-01-20T17:15:23.160Z,98.00
2018-01-20T17:17:50.705Z,98.10
2018-01-20T17:20:18.253Z,98.20
2018-01-20T17:22:45.817Z,98.20
2018-01-20T17:25:13.369Z,98.40
2018-01-20T17:27:40.927Z,98.40
2018-01-20T17:30:08.468Z,98.40
2018-01-20T17:32:36.030Z,98.50
2018-01-20T17:35:04.333Z,98.50
2018-01-20T17:37:32.656Z,98.70
2018-01-20T17:40:00.213Z,98.60
2018-01-20T17:42:28.568Z,98.60
2018-01-20T17:44:56.113Z,98.60
2018-01-20T17:47:24.446Z,98.50
2018-01-20T17:49:51.997Z,98.50
2018-01-20T17:52:20.329Z,98.30
2018-01-20T17:54:47.877Z,98.30
2018-01-20T17:57:16.187Z,98.20
2018-01-20T17:59:44.529Z,98.20
2018-01-20T18:02:12.080Z,98.20
2018-01-20T18:04:39.653Z,98.20
2018-01-20T18:07:07.968Z,98.10
2018-01-20T18:09:35.528Z,98.10
2018-01-20T18:12:03.072Z,98.10
2018-01-20T18:14:30.646Z,98.20
2018-01-20T18:16:58.192Z,98.10
2018-01-20T18:19:26.524Z,98.20
2018-01-20T18:21:54.077Z,98.50
2018-01-20T18:24:22.404Z,98.20
2018-01-20T18:26:49.946Z,98.20
2018-01-20T18:29:18.295Z,98.60
2018-01-20T18:31:46.073Z,98.30
2018-01-20T18:34:13.622Z,98.30
2018-01-20T18:36:41.958Z,98.40
2018-01-20T18:39:09.497Z,98.40
2018-01-20T18:41:37.068Z,98.40
2018-01-20T18:44:04.616Z,98.40
2018-01-20T18:46:32.192Z,98.40
2018-01-20T18:48:59.737Z,98.40
2018-01-20T18:51:27.307Z,98.50
2018-01-20T18:53:54.885Z,98.50
2018-01-20T18:56:22.460Z,98.60
2018-01-20T18:58:50.780Z,98.60
2018-01-20T19:01:18.382Z,98.60
2018-01-20T19:03:45.939Z,98.50
2018-01-20T19:06:13.499Z,98.90
2018-01-20T19:08:41.065Z,98.50
2018-01-20T19:11:08.620Z,98.50
2018-01-20T19:13:36.935Z,98.60
2018-01-20T19:16:05.255Z,98.50
2018-01-20T19:18:32.829Z,98.50
2018-01-20T19:21:01.140Z,98.50
2018-01-20T19:23:28.720Z,98.50
2018-01-20T19:25:56.277Z,98.50
2018-01-20T19:28:24.700Z,98.40
2018-01-20T19:30:52.243Z,98.40
2018-01-20T19:33:19.805Z,98.40
2018-01-20T19:35:47.352Z,98.40
2018-01-20T19:38:15.680Z,98.40
2018-01-20T19:40:43.516Z,98.70
2018-01-20T19:43:11.075Z,98.40
2018-01-20T19:45:38.653Z,98.40
2018-01-20T19:48:06.192Z,98.30
2018-01-20T19:50:34.583Z,98.40
2018-01-20T19:53:02.916Z,98.30
2018-01-20T19:55:30.488Z,98.30
2018-01-20T19:57:58.053Z,98.30
2018-01-20T20:00:26.410Z,98.30
2018-01-20T20:02:54.509Z,98.60
2018-01-20T20:05:22.840Z,98.30
2018-01-20T20:07:50.398Z,98.30
2018-01-20T20:10:17.976Z,98.30
2018-01-20T20:12:45.529Z,98.30
2018-01-20T20:15:13.863Z,98.40
2018-01-20T20:17:41.412Z,98.40
2018-01-20T20:20:09.754Z,98.40
2018-01-20T20:22:37.313Z,98.40
2018-01-20T20:25:04.878Z,98.40
2018-01-20T20:27:33.236Z,98.60
2018-01-20T20:30:00.808Z,98.60
2018-01-20T20:32:28.368Z,98.60
2018-01-20T20:34:55.940Z,98.60
2018-01-20T20:37:23.522Z,98.70
2018-01-20T20:39:51.938Z,98.70
2018-01-20T20:42:19.500Z,98.70
2018-01-20T20:44:47.821Z,98.80
2018-01-20T20:47:15.392Z,98.80
2018-01-20T20:49:43.719Z,99.00
2018-01-20T20:52:11.303Z,98.90
2018-01-20T20:54:38.858Z,99.80
2018-01-20T20:57:06.451Z,99.90
2018-01-20T20:59:34.776Z,99.90
2018-01-20T21:02:02.379Z,99.90
2018-01-20T21:04:29.944Z,99.90
2018-01-20T21:06:57.521Z,99.90
2018-01-20T21:09:25.084Z,99.90
2018-01-20T21:11:53.434Z,99.90
2018-01-20T21:14:20.987Z,99.90
2018-01-20T21:16:53.611Z,99.90
2018-01-20T21:19:21.179Z,99.90
2018-01-20T21:21:48.758Z,99.90
2018-01-20T21:24:17.072Z,99.90
2018-01-20T21:26:44.635Z,99.90
2018-01-20T21:29:13.975Z,99.90
2018-01-20T21:31:41.563Z,99.90
2018-01-20T21:34:09.141Z,99.70
2018-01-20T21:36:36.709Z,99.50
2018-01-20T21:39:05.690Z,99.50
2018-01-20T21:41:33.688Z,99.50
2018-01-20T21:44:01.428Z,99.70
2018-01-20T21:46:29.756Z,99.90
2018-01-20T21:48:57.357Z,99.90
2018-01-20T21:51:24.908Z,99.90
2018-01-20T21:53:52.488Z,99.90
2018-01-20T21:56:20.058Z,99.90
2018-01-20T21:58:48.405Z,99.90
2018-01-20T22:01:15.978Z,99.90
2018-01-20T22:03:43.572Z,99.90
2018-01-20T22:06:11.144Z,99.90
2018-01-20T22:08:38.706Z,99.80
2018-01-20T22:11:07.816Z,99.80
2018-01-20T22:13:36.181Z,99.70
2018-01-20T22:16:04.813Z,99.70
2018-01-20T22:18:32.373Z,99.50
2018-01-20T22:21:01.068Z,99.80
2018-01-20T22:23:29.132Z,99.90
2018-01-20T22:25:56.701Z,99.90
2018-01-20T22:28:25.031Z,99.90
2018-01-20T22:30:52.629Z,99.90
2018-01-20T22:33:20.204Z,99.90
2018-01-20T22:35:47.801Z,99.90
2018-01-20T22:38:15.365Z,99.90
2018-01-20T22:40:42.929Z,99.90
2018-01-20T22:43:11.277Z,99.90
2018-01-20T22:45:38.856Z,99.90
2018-01-20T22:48:06.458Z,99.90
2018-01-20T22:50:34.030Z,99.90
2018-01-20T22:53:01.650Z,99.90
2018-01-20T22:55:30.625Z,99.90
2018-01-20T22:57:59.597Z,99.90
2018-01-20T23:00:29.149Z,99.90
2018-01-20T23:03:00.110Z,99.90
2018-01-20T23:05:28.044Z,99.90
2018-01-20T23:07:55.608Z,99.90
2018-01-20T23:10:23.163Z,99.90
2018-01-20T23:12:55.524Z,99.90
2018-01-20T23:15:23.241Z,99.90
2018-01-20T23:17:51.584Z,99.90
2018-01-20T23:20:21.351Z,99.90
2018-01-20T23:22:49.693Z,99.90
2018-01-20T23:25:17.436Z,99.90
2018-01-20T23:27:45.009Z,99.90
2018-01-20T23:30:12.580Z,99.90
2018-01-20T23:32:40.148Z,99.90
2018-01-20T23:35:07.737Z,99.90
2018-01-20T23:37:35.292Z,99.90
2018-01-20T23:40:03.644Z,99.90
2018-01-20T23:42:31.202Z,99.90
2018-01-20T23:44:58.840Z,99.90
2018-01-20T23:47:26.396Z,99.90
2018-01-20T23:49:53.964Z,99.90
2018-01-20T23:52:21.531Z,99.90
2018-01-20T23:54:49.105Z,99.90
2018-01-20T23:57:17.430Z,99.90
2018-01-20T23:59:45.043Z,99.90
